createdAt,value
2018-06-28T00:01:03.150Z,10.00
2018-06-28T00:03:30.681Z,10.10
2018-06-28T00:05:58.178Z,10.30
2018-06-28T00:08:25.685Z,10.30
2018-06-28T00:10:53.086Z,10.20
2018-06-28T00:13:20.517Z,9.90
2018-06-28T00:15:47.942Z,9.80
2018-06-28T00:18:15.340Z,9.80
2018-06-28T00:20:42.753Z,9.80
2018-06-28T00:23:10.223Z,9.70
2018-06-28T00:25:37.618Z,9.60
2018-06-28T00:28:05.102Z,9.50
2018-06-28T00:30:32.512Z,9.40
2018-06-28T00:32:59.933Z,9.30
2018-06-28T00:35:27.374Z,9.20
2018-06-28T00:37:54.846Z,9.20
2018-06-28T00:40:22.318Z,9.20
2018-06-28T00:42:49.823Z,9.20
2018-06-28T00:45:23.723Z,9.30
2018-06-28T00:47:52.275Z,9.40
2018-06-28T00:50:20.892Z,9.30
2018-06-28T00:52:48.566Z,9.30
2018-06-28T00:55:16.090Z,9.20
2018-06-28T00:57:43.722Z,9.00
2018-06-28T01:00:11.337Z,8.90
2018-06-28T01:02:39.025Z,8.80
2018-06-28T01:05:06.670Z,8.70
2018-06-28T01:07:34.178Z,8.60
2018-06-28T01:10:01.778Z,8.60
2018-06-28T01:12:29.422Z,8.60
2018-06-28T01:15:39.901Z,8.50
2018-06-28T01:34:39.146Z,8.10
2018-06-28T01:40:04.570Z,7.90
2018-06-28T01:53:54.485Z,7.60
2018-06-28T01:56:40.191Z,7.50
2018-06-28T01:59:16.278Z,7.50
2018-06-28T02:02:28.042Z,7.50
2018-06-28T02:19:36.066Z,7.70
2018-06-28T02:44:58.409Z,7.60
2018-06-28T03:05:28.125Z,8.10
2018-06-28T03:16:13.099Z,8.80
2018-06-28T03:18:40.610Z,10.00
2018-06-28T03:24:36.555Z,12.20
2018-06-28T03:27:04.414Z,13.80
2018-06-28T03:29:35.664Z,14.70
2018-06-28T03:32:08.283Z,15.20
2018-06-28T03:45:34.342Z,17.10
2018-06-28T04:45:28.989Z,22.70
2018-06-28T05:36:30.983Z,31.80
2018-06-28T05:39:12.498Z,30.20
2018-06-28T05:49:18.565Z,29.40
2018-06-28T05:52:14.961Z,30.40
2018-06-28T05:55:23.330Z,31.20
2018-06-28T06:38:14.443Z,33.10
2018-06-28T07:30:59.690Z,24.90
2018-06-28T07:33:51.236Z,24.60
2018-06-28T07:43:07.645Z,24.20
2018-06-28T07:48:37.132Z,24.60
2018-06-28T07:51:29.261Z,24.40
2018-06-28T07:54:57.605Z,24.20
2018-06-28T08:49:45.895Z,24.90
2018-06-28T09:00:44.328Z,25.50
2018-06-28T09:03:34.993Z,25.50
2018-06-28T09:06:21.156Z,25.70
2018-06-28T10:41:16.445Z,26.40
2018-06-28T11:11:26.607Z,27.00
2018-06-28T11:19:29.181Z,26.90
2018-06-28T11:39:05.983Z,28.00
2018-06-28T14:04:36.767Z,29.30
2018-06-28T15:20:37.038Z,29.60
2018-06-28T15:46:13.266Z,28.50
2018-06-28T16:09:34.150Z,28.00
2018-06-28T16:12:13.145Z,27.90
2018-06-28T16:21:17.607Z,27.30
2018-06-28T16:24:18.839Z,27.30
2018-06-28T16:36:51.521Z,27.20
2018-06-28T16:39:52.838Z,27.20
2018-06-28T16:42:31.830Z,27.00
2018-06-28T16:58:00.887Z,26.60
2018-06-28T17:13:32.152Z,26.50
2018-06-28T17:16:07.312Z,26.30
2018-06-28T17:29:49.623Z,25.30
2018-06-28T18:10:00.355Z,27.10
2018-06-28T18:22:36.081Z,25.20
2018-06-28T18:38:08.361Z,24.90
2018-06-28T18:40:39.272Z,24.60
2018-06-28T18:43:09.701Z,23.60
2018-06-28T18:45:42.691Z,23.50
2018-06-28T18:48:14.654Z,23.40
2018-06-28T18:56:01.179Z,23.30
2018-06-28T18:58:33.025Z,23.20
2018-06-28T19:15:07.060Z,22.40
2018-06-28T19:17:36.414Z,22.30
2018-06-28T19:20:07.023Z,22.20
2018-06-28T19:22:41.428Z,22.20
2018-06-28T19:25:12.389Z,22.00
2018-06-28T19:27:48.612Z,22.00
2018-06-28T19:30:23.025Z,21.90
2018-06-28T19:32:53.699Z,21.80
2018-06-28T19:40:28.161Z,21.70
2018-06-28T19:43:13.026Z,21.60
2018-06-28T19:45:43.708Z,21.20
2018-06-28T19:48:24.033Z,21.10
2018-06-28T19:51:00.396Z,21.10
2018-06-28T19:53:32.920Z,21.00
2018-06-28T19:56:04.556Z,20.90
2018-06-28T19:58:42.839Z,20.80
2018-06-28T20:04:53.590Z,20.60
2018-06-28T20:07:23.610Z,20.50
2018-06-28T20:09:53.104Z,20.40
2018-06-28T20:15:04.117Z,20.20
2018-06-28T20:17:39.756Z,20.10
2018-06-28T20:20:14.037Z,19.90
2018-06-28T20:22:48.776Z,19.70
2018-06-28T20:25:25.686Z,19.60
2018-06-28T20:28:03.909Z,19.40
2018-06-28T20:30:41.502Z,19.20
2018-06-28T20:33:21.683Z,19.00
2018-06-28T20:38:22.084Z,18.70
2018-06-28T20:40:51.475Z,18.70
2018-06-28T20:43:21.885Z,18.80
2018-06-28T20:45:51.599Z,18.80
2018-06-28T20:48:21.669Z,18.70
2018-06-28T20:50:53.711Z,18.50
2018-06-28T20:53:37.512Z,18.30
2018-06-28T20:56:08.247Z,18.10
2018-06-28T20:58:37.549Z,17.90
2018-06-28T21:01:10.803Z,17.70
2018-06-28T21:03:41.618Z,17.60
2018-06-28T21:06:12.453Z,17.40
2018-06-28T21:08:42.857Z,17.20
2018-06-28T21:11:12.877Z,17.20
2018-06-28T21:13:42.234Z,17.00
2018-06-28T21:16:11.113Z,16.70
2018-06-28T21:18:39.969Z,16.50
2018-06-28T21:21:09.588Z,16.30
2018-06-28T21:23:38.872Z,16.20
2018-06-28T21:26:09.005Z,16.20
2018-06-28T21:28:37.620Z,16.20
2018-06-28T21:31:05.690Z,16.50
2018-06-28T21:33:35.473Z,16.80
2018-06-28T21:36:11.954Z,16.80
2018-06-28T21:41:18.143Z,16.60
2018-06-28T21:43:48.789Z,16.60
2018-06-28T21:46:26.447Z,16.50
2018-06-28T21:48:56.580Z,16.30
2018-06-28T21:51:28.151Z,16.10
2018-06-28T21:54:05.114Z,15.90
2018-06-28T21:59:03.730Z,15.60
2018-06-28T22:01:32.462Z,15.50
2018-06-28T22:04:01.093Z,15.70
2018-06-28T22:06:31.142Z,15.80
2018-06-28T22:08:59.302Z,16.00
2018-06-28T22:11:29.266Z,16.00
2018-06-28T22:14:02.151Z,15.90
2018-06-28T22:16:32.875Z,15.80
2018-06-28T22:19:07.052Z,15.60
2018-06-28T22:21:37.992Z,15.50
2018-06-28T22:24:08.933Z,15.30
2018-06-28T22:28:48.962Z,15.20
2018-06-28T22:31:20.842Z,15.00
2018-06-28T22:33:49.573Z,14.80
2018-06-28T22:36:19.312Z,14.70
2018-06-28T22:38:50.967Z,14.50
2018-06-28T22:41:22.630Z,14.40
2018-06-28T22:43:51.869Z,14.30
2018-06-28T22:46:20.744Z,14.10
2018-06-28T22:51:23.366Z,13.90
2018-06-28T22:56:21.457Z,13.80
2018-06-28T22:58:49.353Z,13.70
2018-06-28T23:01:17.365Z,13.70
2018-06-28T23:03:46.255Z,13.70
2018-06-28T23:06:14.351Z,13.60
2018-06-28T23:08:42.318Z,13.40
2018-06-28T23:11:10.304Z,13.30
2018-06-28T23:13:38.291Z,13.30
2018-06-28T23:16:07.071Z,13.40
2018-06-28T23:18:35.506Z,13.40
2018-06-28T23:21:04.426Z,13.30
2018-06-28T23:23:32.537Z,13.30
2018-06-28T23:26:00.735Z,13.20
2018-06-28T23:28:28.721Z,13.00
2018-06-28T23:30:56.748Z,12.80
2018-06-28T23:33:24.945Z,12.60
2018-06-28T23:35:53.953Z,12.60
2018-06-28T23:38:23.146Z,12.70
2018-06-28T23:40:52.229Z,12.90
2018-06-28T23:45:53.310Z,12.60
2018-06-28T23:48:22.894Z,12.50
2018-06-28T23:50:52.132Z,12.70
2018-06-28T23:53:24.750Z,12.80
2018-06-28T23:55:54.584Z,12.80
2018-06-28T23:58:28.666Z,12.50
